createdAt,value
2023-02-01T00:00:15.087Z,80.07
2023-02-01T00:02:43.161Z,80.50
2023-02-01T00:05:12.332Z,80.82
2023-02-01T00:07:41.699Z,80.74
2023-02-01T00:10:11.086Z,80.97
2023-02-01T00:12:39.088Z,80.99
2023-02-01T00:15:08.073Z,81.17
2023-02-01T00:17:36.059Z,81.57
2023-02-01T00:20:04.809Z,81.87
2023-02-01T00:22:32.792Z,81.01
2023-02-01T00:25:02.160Z,81.00
2023-02-01T00:27:30.280Z,80.65
2023-02-01T00:29:58.262Z,80.94
2023-02-01T00:32:26.329Z,81.02
2023-02-01T00:34:54.325Z,81.16
2023-02-01T00:37:22.649Z,80.98
2023-02-01T00:39:51.346Z,80.98
2023-02-01T00:42:20.698Z,81.18
2023-02-01T00:44:48.674Z,81.42
2023-02-01T00:47:16.628Z,81.01
2023-02-01T00:49:44.791Z,81.25
2023-02-01T00:52:12.745Z,81.70
2023-02-01T00:54:40.702Z,81.24
2023-02-01T00:57:08.691Z,81.31
2023-02-01T00:59:38.067Z,80.99
2023-02-01T01:02:06.051Z,81.11
2023-02-01T01:04:34.181Z,81.09
2023-02-01T01:07:02.179Z,80.92
2023-02-01T01:09:30.193Z,80.74
2023-02-01T01:11:58.171Z,80.88
2023-02-01T01:14:26.147Z,80.85
2023-02-01T01:16:55.543Z,80.64
2023-02-01T01:19:23.697Z,81.21
2023-02-01T01:21:51.806Z,81.11
2023-02-01T01:24:19.822Z,81.46
2023-02-01T01:26:47.919Z,81.20
2023-02-01T01:29:15.944Z,81.21
2023-02-01T01:31:43.905Z,81.68
2023-02-01T01:34:13.343Z,81.58
2023-02-01T01:36:41.388Z,81.78
2023-02-01T01:39:09.416Z,81.43
2023-02-01T01:41:37.447Z,81.37
2023-02-01T01:44:59.359Z,82.00
2023-02-01T01:47:35.544Z,81.83
2023-02-01T01:50:08.907Z,81.78
2023-02-01T01:52:39.044Z,82.05
2023-02-01T01:55:07.874Z,81.79
2023-02-01T01:57:40.277Z,82.01
2023-02-01T02:00:12.301Z,82.02
2023-02-01T02:02:48.999Z,81.50
2023-02-01T02:05:20.791Z,81.26
2023-02-01T02:07:51.508Z,81.72
2023-02-01T02:10:20.513Z,81.75
2023-02-01T02:12:50.779Z,82.17
2023-02-01T02:15:19.523Z,82.15
2023-02-01T02:17:54.045Z,82.17
2023-02-01T02:20:41.837Z,82.35
2023-02-01T02:23:47.004Z,82.02
2023-02-01T02:26:50.631Z,82.44
2023-02-01T02:30:20.791Z,82.66
2023-02-01T02:33:17.540Z,83.02
2023-02-01T02:35:53.707Z,82.83
2023-02-01T02:38:31.636Z,82.89
2023-02-01T02:41:09.154Z,82.72
2023-02-01T02:44:08.980Z,82.85
2023-02-01T02:46:58.689Z,83.13
2023-02-01T02:49:32.288Z,83.12
2023-02-01T02:52:25.004Z,83.41
2023-02-01T02:54:56.426Z,83.30
2023-02-01T02:57:46.350Z,83.36
2023-02-01T03:00:36.125Z,83.41
2023-02-01T03:03:21.951Z,83.67
2023-02-01T03:05:52.574Z,83.80
2023-02-01T03:08:22.951Z,83.77
2023-02-01T03:10:59.190Z,83.78
2023-02-01T03:13:35.407Z,83.47
2023-02-01T03:16:09.193Z,83.99
2023-02-01T03:18:44.572Z,83.49
2023-02-01T03:21:19.978Z,83.69
2023-02-01T03:23:50.972Z,83.61
2023-02-01T03:26:22.698Z,84.28
2023-02-01T03:28:57.660Z,83.68
2023-02-01T03:31:26.521Z,84.05
2023-02-01T03:33:54.549Z,84.16
2023-02-01T03:36:28.729Z,84.03
2023-02-01T03:39:03.515Z,84.32
2023-02-01T03:41:40.001Z,84.07
2023-02-01T03:44:20.429Z,84.80
2023-02-01T03:46:54.028Z,84.62
2023-02-01T03:49:28.492Z,84.90
2023-02-01T03:52:00.828Z,84.25
2023-02-01T03:54:30.738Z,84.42
2023-02-01T03:57:03.443Z,84.55
2023-02-01T03:59:31.971Z,84.50
2023-02-01T04:02:00.155Z,84.68
2023-02-01T04:04:28.482Z,84.99
2023-02-01T04:06:59.167Z,84.95
2023-02-01T04:09:27.321Z,85.25
2023-02-01T04:11:55.388Z,85.14
2023-02-01T04:14:23.569Z,85.00
2023-02-01T04:16:51.687Z,85.42
2023-02-01T04:19:19.733Z,85.19
2023-02-01T04:21:47.683Z,85.43
2023-02-01T04:24:17.111Z,85.43
2023-02-01T04:26:45.266Z,85.73
2023-02-01T04:29:13.388Z,85.55
2023-02-01T04:31:41.843Z,85.87
2023-02-01T04:34:09.892Z,86.29
2023-02-01T04:36:37.870Z,86.08
2023-02-01T04:39:06.214Z,86.21
2023-02-01T04:41:36.161Z,85.86
2023-02-01T04:44:04.126Z,85.75
2023-02-01T04:46:32.220Z,85.36
2023-02-01T04:49:00.301Z,85.82
2023-02-01T04:51:28.397Z,85.74
2023-02-01T04:53:56.831Z,85.99
2023-02-01T04:56:24.963Z,85.44
2023-02-01T04:58:54.402Z,85.40
2023-02-01T05:01:22.377Z,85.08
2023-02-01T05:03:50.433Z,85.52
2023-02-01T05:06:18.683Z,84.96
2023-02-01T05:08:46.693Z,85.20
2023-02-01T05:11:28.517Z,85.56
2023-02-01T05:13:57.968Z,85.09
2023-02-01T05:16:26.425Z,85.53
2023-02-01T05:18:54.612Z,85.04
2023-02-01T05:21:22.601Z,85.38
2023-02-01T05:24:08.011Z,85.69
2023-02-01T05:26:36.052Z,85.06
2023-02-01T05:29:06.110Z,85.34
2023-02-01T05:31:34.313Z,85.44
2023-02-01T05:34:02.402Z,85.55
2023-02-01T05:36:30.369Z,85.54
2023-02-01T05:38:58.640Z,85.40
2023-02-01T05:41:26.893Z,85.40
2023-02-01T05:43:54.904Z,85.78
2023-02-01T05:46:24.317Z,85.35
2023-02-01T05:48:52.331Z,85.36
2023-02-01T05:51:20.303Z,85.77
2023-02-01T05:53:48.289Z,85.37
2023-02-01T05:56:16.235Z,85.71
2023-02-01T05:58:44.273Z,85.43
2023-02-01T06:01:12.333Z,85.14
2023-02-01T06:03:41.766Z,85.27
2023-02-01T06:06:09.868Z,85.30
2023-02-01T06:08:37.872Z,85.08
2023-02-01T06:11:07.185Z,84.95
2023-02-01T06:13:35.476Z,85.29
2023-02-01T06:16:04.503Z,85.16
2023-02-01T06:18:32.678Z,84.31
2023-02-01T06:21:02.613Z,84.57
2023-02-01T06:23:31.113Z,84.03
2023-02-01T06:26:03.895Z,84.49
2023-02-01T06:28:32.930Z,84.96
2023-02-01T06:31:07.595Z,85.50
2023-02-01T06:33:36.343Z,84.71
2023-02-01T06:36:07.781Z,85.43
2023-02-01T06:38:36.430Z,85.00
2023-02-01T06:41:05.432Z,84.93
2023-02-01T06:43:34.275Z,84.75
2023-02-01T06:46:03.404Z,84.47
2023-02-01T06:48:31.568Z,84.30
2023-02-01T06:50:59.519Z,84.10
2023-02-01T06:53:28.993Z,85.29
2023-02-01T06:55:58.236Z,85.22
2023-02-01T06:58:29.900Z,84.50
2023-02-01T07:00:58.051Z,84.74
2023-02-01T07:03:26.185Z,85.72
2023-02-01T07:05:59.513Z,86.23
2023-02-01T07:08:29.157Z,85.53
2023-02-01T07:10:57.155Z,85.38
2023-02-01T07:13:25.185Z,85.57
2023-02-01T07:15:53.213Z,85.54
2023-02-01T07:18:21.172Z,84.88
2023-02-01T07:20:52.323Z,84.57
2023-02-01T07:23:21.268Z,84.33
2023-02-01T07:25:50.720Z,84.26
2023-02-01T07:28:18.843Z,84.19
2023-02-01T07:30:51.868Z,83.64
2023-02-01T07:33:22.201Z,83.96
2023-02-01T07:35:51.241Z,84.34
2023-02-01T07:38:20.609Z,84.55
2023-02-01T07:40:49.979Z,84.10
2023-02-01T07:43:18.308Z,83.53
2023-02-01T07:45:53.397Z,83.27
2023-02-01T07:48:21.569Z,82.84
2023-02-01T07:50:49.619Z,82.98
2023-02-01T07:53:17.626Z,83.04
2023-02-01T07:55:45.636Z,82.54
2023-02-01T07:58:15.086Z,82.59
2023-02-01T08:01:00.361Z,83.17
2023-02-01T08:03:28.404Z,82.57
2023-02-01T08:05:56.876Z,82.18
2023-02-01T08:08:25.362Z,82.41
2023-02-01T08:10:55.636Z,82.66
2023-02-01T08:13:25.249Z,82.22
2023-02-01T08:15:53.228Z,83.74
2023-02-01T08:18:21.906Z,84.93
2023-02-01T08:20:49.971Z,86.26
2023-02-01T08:23:18.135Z,86.18
2023-02-01T08:25:46.323Z,85.11
2023-02-01T08:28:15.353Z,84.16
2023-02-01T08:30:44.779Z,82.52
2023-02-01T08:33:12.894Z,81.56
2023-02-01T08:35:44.065Z,81.29
2023-02-01T08:38:12.495Z,80.34
2023-02-01T08:40:42.380Z,80.26
2023-02-01T08:43:10.402Z,80.32
2023-02-01T08:45:38.410Z,79.30
2023-02-01T08:48:08.103Z,78.61
2023-02-01T08:50:36.467Z,77.97
2023-02-01T08:53:04.489Z,77.61
2023-02-01T08:55:32.498Z,77.63
2023-02-01T08:58:00.535Z,77.22
2023-02-01T09:00:28.722Z,76.83
2023-02-01T09:02:57.900Z,76.48
2023-02-01T09:05:35.003Z,76.03
2023-02-01T09:08:09.286Z,75.86
2023-02-01T09:10:39.024Z,75.35
2023-02-01T09:13:07.252Z,75.21
2023-02-01T09:15:35.249Z,75.14
2023-02-01T09:18:03.348Z,75.07
2023-02-01T09:20:32.814Z,75.06
2023-02-01T09:23:01.114Z,74.95
2023-02-01T09:25:29.410Z,74.58
2023-02-01T09:27:57.375Z,73.93
2023-02-01T09:30:25.800Z,74.07
2023-02-01T09:32:54.063Z,73.60
2023-02-01T09:35:22.107Z,73.81
2023-02-01T09:37:51.457Z,73.62
2023-02-01T09:40:19.795Z,73.37
2023-02-01T09:43:10.931Z,72.66
2023-02-01T09:45:51.365Z,72.55
2023-02-01T09:48:23.210Z,73.11
2023-02-01T09:50:55.268Z,72.47
2023-02-01T09:53:30.055Z,72.44
2023-02-01T09:56:02.609Z,71.75
2023-02-01T09:58:37.684Z,71.72
2023-02-01T10:01:13.665Z,71.19
2023-02-01T10:03:41.749Z,71.50
2023-02-01T10:06:28.941Z,71.47
2023-02-01T10:09:12.628Z,70.60
2023-02-01T10:11:51.860Z,70.10
2023-02-01T10:14:42.755Z,70.86
2023-02-01T10:17:22.393Z,70.75
2023-02-01T10:20:01.088Z,70.56
2023-02-01T10:23:03.680Z,70.62
2023-02-01T10:25:38.965Z,71.35
2023-02-01T10:28:07.298Z,72.08
2023-02-01T10:30:41.943Z,71.20
2023-02-01T10:33:17.680Z,69.92
2023-02-01T10:35:48.047Z,70.06
2023-02-01T10:38:29.444Z,70.37
2023-02-01T10:41:04.126Z,70.58
2023-02-01T10:43:34.992Z,69.53
2023-02-01T10:46:03.075Z,69.48
2023-02-01T10:48:31.321Z,70.19
2023-02-01T10:51:02.700Z,69.89
2023-02-01T10:53:38.249Z,69.91
2023-02-01T10:56:10.718Z,68.26
2023-02-01T10:58:46.125Z,68.88
2023-02-01T11:01:21.481Z,69.78
2023-02-01T11:03:56.005Z,69.14
2023-02-01T11:06:32.759Z,68.46
2023-02-01T11:09:03.364Z,69.15
2023-02-01T11:11:32.807Z,68.21
2023-02-01T11:14:03.026Z,68.95
2023-02-01T11:16:35.671Z,68.35
2023-02-01T11:19:04.013Z,68.38
2023-02-01T11:21:32.230Z,68.31
2023-02-01T11:24:03.861Z,68.92
2023-02-01T11:26:34.160Z,69.37
2023-02-01T11:29:05.631Z,69.47
2023-02-01T11:31:36.174Z,69.20
2023-02-01T11:34:09.671Z,69.68
2023-02-01T11:36:39.479Z,69.57
2023-02-01T11:39:25.089Z,69.27
2023-02-01T11:42:04.330Z,68.52
2023-02-01T11:44:36.518Z,69.36
2023-02-01T11:47:23.564Z,68.38
2023-02-01T11:49:53.959Z,68.30
2023-02-01T11:52:35.848Z,69.09
2023-02-01T11:55:20.409Z,67.34
2023-02-01T11:58:02.593Z,67.31
2023-02-01T12:00:59.135Z,67.80
2023-02-01T12:03:57.147Z,66.83
2023-02-01T12:06:36.583Z,67.80
2023-02-01T12:09:23.364Z,68.43
2023-02-01T12:11:59.997Z,66.81
2023-02-01T12:14:52.643Z,67.52
2023-02-01T12:17:46.955Z,66.64
2023-02-01T12:20:37.322Z,65.06
2023-02-01T12:23:23.403Z,65.56
2023-02-01T12:26:14.402Z,64.54
2023-02-01T12:29:00.225Z,65.19
2023-02-01T12:31:57.094Z,64.21
2023-02-01T12:34:41.081Z,65.51
2023-02-01T12:37:23.303Z,66.00
2023-02-01T12:40:10.337Z,66.03
2023-02-01T12:42:50.511Z,66.65
2023-02-01T12:45:57.582Z,65.55
2023-02-01T12:49:04.180Z,65.17
2023-02-01T12:51:41.348Z,65.41
2023-02-01T12:54:15.282Z,65.81
2023-02-01T12:56:48.230Z,66.36
2023-02-01T12:59:25.607Z,66.59
2023-02-01T13:02:00.103Z,65.90
2023-02-01T13:04:35.265Z,65.89
2023-02-01T13:07:11.914Z,65.41
2023-02-01T13:09:45.102Z,65.29
2023-02-01T13:12:18.226Z,65.19
2023-02-01T13:14:51.776Z,65.70
2023-02-01T13:17:24.507Z,66.26
2023-02-01T13:19:58.154Z,65.80
2023-02-01T13:22:31.429Z,65.44
2023-02-01T13:25:03.103Z,65.38
2023-02-01T13:27:33.292Z,65.47
2023-02-01T13:30:04.516Z,65.30
2023-02-01T13:33:53.600Z,66.33
2023-02-01T13:36:19.764Z,65.01
2023-02-01T13:39:22.603Z,65.30
2023-02-01T13:41:58.143Z,65.04
2023-02-01T13:44:32.035Z,64.29
2023-02-01T13:47:04.846Z,64.27
2023-02-01T13:49:39.376Z,64.24
2023-02-01T13:52:29.430Z,63.57
2023-02-01T13:55:18.374Z,63.50
2023-02-01T13:57:46.978Z,64.61
2023-02-01T14:00:31.619Z,65.25
2023-02-01T14:03:13.036Z,64.86
2023-02-01T14:06:17.987Z,64.63
2023-02-01T14:09:10.274Z,64.51
2023-02-01T14:11:44.961Z,64.49
2023-02-01T14:14:51.040Z,64.00
2023-02-01T14:17:38.373Z,63.01
2023-02-01T14:20:52.006Z,63.74
2023-02-01T14:23:32.571Z,69.30
2023-02-01T14:26:14.763Z,68.49
2023-02-01T14:28:47.115Z,69.42
2023-02-01T14:31:37.450Z,70.08
2023-02-01T14:34:15.528Z,67.90
2023-02-01T14:36:48.403Z,68.51
2023-02-01T14:39:31.272Z,68.86
2023-02-01T14:42:04.689Z,68.05
2023-02-01T14:44:38.148Z,67.56
2023-02-01T14:47:32.143Z,67.88
2023-02-01T14:50:15.593Z,67.50
2023-02-01T14:52:46.638Z,67.41
2023-02-01T14:55:19.844Z,66.21
2023-02-01T14:57:54.479Z,66.15
2023-02-01T15:00:26.081Z,66.89
2023-02-01T15:02:56.002Z,67.32
2023-02-01T15:05:33.727Z,66.50
2023-02-01T15:08:18.940Z,66.72
2023-02-01T15:10:49.784Z,67.80
2023-02-01T15:13:24.316Z,66.57
2023-02-01T15:16:06.485Z,67.22
2023-02-01T15:18:35.211Z,68.01
2023-02-01T15:21:09.741Z,67.44
2023-02-01T15:24:11.690Z,67.40
2023-02-01T15:26:39.897Z,67.66
2023-02-01T15:29:13.288Z,67.92
2023-02-01T15:31:43.940Z,67.87
2023-02-01T15:34:12.398Z,67.27
2023-02-01T15:36:42.494Z,67.12
2023-02-01T15:39:24.101Z,67.18
2023-02-01T15:41:55.123Z,66.49
2023-02-01T15:44:32.449Z,65.78
2023-02-01T15:47:02.880Z,67.00
2023-02-01T15:49:33.900Z,67.50
2023-02-01T15:52:03.910Z,67.08
2023-02-01T15:54:45.337Z,67.02
2023-02-01T15:57:13.496Z,67.97
2023-02-01T15:59:45.648Z,67.71
2023-02-01T16:02:28.796Z,66.83
2023-02-01T16:04:56.886Z,67.07
2023-02-01T16:07:29.476Z,67.23
2023-02-01T16:10:00.457Z,67.50
2023-02-01T16:12:35.165Z,67.04
2023-02-01T16:15:05.331Z,67.42
2023-02-01T16:17:33.802Z,68.24
2023-02-01T16:20:02.131Z,66.88
2023-02-01T16:22:30.116Z,67.36
2023-02-01T16:24:58.079Z,67.93
2023-02-01T16:27:26.076Z,67.35
2023-02-01T16:29:56.929Z,67.93
2023-02-01T16:32:27.712Z,68.01
2023-02-01T16:34:55.807Z,67.45
2023-02-01T16:37:28.540Z,66.90
2023-02-01T16:39:56.586Z,66.45
2023-02-01T16:42:24.500Z,66.45
2023-02-01T16:44:52.459Z,66.71
2023-02-01T16:47:23.679Z,66.81
2023-02-01T16:49:53.629Z,66.25
2023-02-01T16:52:23.544Z,66.35
2023-02-01T16:54:51.651Z,65.98
2023-02-01T16:57:23.545Z,65.91
2023-02-01T16:59:52.110Z,66.10
2023-02-01T17:02:22.860Z,65.17
2023-02-01T17:04:51.033Z,65.00
2023-02-01T17:07:21.124Z,64.97
2023-02-01T17:09:49.331Z,65.77
2023-02-01T17:12:23.964Z,65.57
2023-02-01T17:14:52.816Z,65.56
2023-02-01T17:17:32.683Z,66.54
2023-02-01T17:20:07.016Z,66.10
2023-02-01T17:22:36.369Z,65.55
2023-02-01T17:25:07.003Z,65.82
2023-02-01T17:27:35.449Z,66.50
2023-02-01T17:30:04.288Z,66.11
2023-02-01T17:32:32.783Z,66.56
2023-02-01T17:35:00.735Z,66.37
2023-02-01T17:37:31.015Z,65.22
2023-02-01T17:40:00.783Z,64.60
2023-02-01T17:42:30.727Z,65.10
2023-02-01T17:45:01.197Z,64.92
2023-02-01T17:47:29.574Z,65.03
2023-02-01T17:49:57.485Z,64.70
2023-02-01T17:52:26.517Z,64.97
2023-02-01T17:54:55.146Z,64.49
2023-02-01T17:57:24.408Z,64.79
2023-02-01T17:59:52.328Z,65.63
2023-02-01T18:02:22.873Z,65.62
2023-02-01T18:04:51.460Z,64.50
2023-02-01T18:07:19.652Z,65.77
2023-02-01T18:09:47.737Z,65.49
2023-02-01T18:12:25.529Z,65.83
2023-02-01T18:14:54.848Z,65.55
2023-02-01T18:17:23.049Z,66.48
2023-02-01T18:19:50.967Z,66.82
2023-02-01T18:22:23.032Z,67.82
2023-02-01T18:24:51.041Z,67.04
2023-02-01T18:27:18.936Z,67.36
2023-02-01T18:29:46.824Z,67.28
2023-02-01T18:32:17.025Z,66.81
2023-02-01T18:34:44.936Z,67.02
2023-02-01T18:37:12.860Z,67.15
2023-02-01T18:39:40.794Z,67.64
2023-02-01T18:42:11.946Z,67.89
2023-02-01T18:44:39.931Z,67.93
2023-02-01T18:47:07.992Z,67.96
2023-02-01T18:49:37.937Z,68.20
2023-02-01T18:52:06.714Z,67.96
2023-02-01T18:54:34.713Z,68.35
2023-02-01T18:57:03.422Z,69.10
2023-02-01T18:59:31.368Z,68.44
2023-02-01T19:01:59.459Z,68.36
2023-02-01T19:04:27.550Z,68.70
2023-02-01T19:06:56.975Z,68.53
2023-02-01T19:09:24.915Z,69.10
2023-02-01T19:11:53.127Z,69.61
2023-02-01T19:14:21.185Z,69.00
2023-02-01T19:16:49.105Z,69.15
2023-02-01T19:19:16.991Z,69.82
2023-02-01T19:21:44.868Z,69.79
2023-02-01T19:24:14.117Z,69.63
2023-02-01T19:26:42.513Z,69.32
2023-02-01T19:29:10.502Z,69.52
2023-02-01T19:31:38.446Z,70.63
2023-02-01T19:34:06.367Z,70.17
2023-02-01T19:36:34.311Z,70.31
2023-02-01T19:39:02.331Z,71.36
2023-02-01T19:41:31.683Z,70.80
2023-02-01T19:43:59.862Z,71.56
2023-02-01T19:46:28.557Z,71.09
2023-02-01T19:48:56.481Z,71.82
2023-02-01T19:51:24.809Z,71.93
2023-02-01T19:53:52.808Z,72.66
2023-02-01T19:56:20.745Z,72.68
2023-02-01T19:58:51.115Z,72.44
2023-02-01T20:01:18.759Z,72.82
2023-02-01T20:03:46.711Z,72.54
2023-02-01T20:06:14.659Z,72.87
2023-02-01T20:08:42.623Z,72.97
2023-02-01T20:11:10.562Z,72.55
2023-02-01T20:13:38.728Z,72.79
2023-02-01T20:16:08.311Z,73.46
2023-02-01T20:18:37.278Z,73.63
2023-02-01T20:21:05.590Z,73.77
2023-02-01T20:23:33.536Z,73.43
2023-02-01T20:26:04.138Z,74.03
2023-02-01T20:28:32.477Z,73.89
2023-02-01T20:31:00.822Z,74.11
2023-02-01T20:33:31.042Z,74.19
2023-02-01T20:35:59.354Z,74.57
2023-02-01T20:38:27.246Z,74.33
2023-02-01T20:41:02.353Z,75.00
2023-02-01T20:43:30.270Z,75.15
2023-02-01T20:45:58.228Z,75.55
2023-02-01T20:48:26.472Z,76.24
2023-02-01T20:50:56.550Z,76.13
2023-02-01T20:53:27.049Z,75.53
2023-02-01T20:55:56.609Z,75.83
2023-02-01T20:58:25.127Z,76.10
2023-02-01T21:00:53.862Z,76.18
2023-02-01T21:03:22.321Z,75.88
2023-02-01T21:05:51.896Z,76.17
2023-02-01T21:08:21.974Z,76.04
2023-02-01T21:10:57.794Z,76.31
2023-02-01T21:13:26.217Z,76.35
2023-02-01T21:15:54.497Z,76.21
2023-02-01T21:18:23.230Z,76.24
2023-02-01T21:20:51.701Z,76.33
2023-02-01T21:23:21.115Z,76.26
2023-02-01T21:25:49.453Z,76.18
2023-02-01T21:28:17.399Z,76.60
2023-02-01T21:30:45.309Z,76.40
2023-02-01T21:33:13.236Z,76.63
2023-02-01T21:35:43.392Z,76.63
2023-02-01T21:38:11.430Z,76.82
2023-02-01T21:40:40.774Z,77.17
2023-02-01T21:43:08.908Z,76.66
2023-02-01T21:45:38.291Z,77.09
2023-02-01T21:48:07.914Z,77.22
2023-02-01T21:50:36.204Z,76.86
2023-02-01T21:53:04.710Z,77.31
2023-02-01T21:55:32.629Z,77.33
2023-02-01T21:58:01.904Z,77.20
2023-02-01T22:00:29.811Z,77.59
2023-02-01T22:02:57.709Z,76.74
2023-02-01T22:05:26.120Z,77.28
2023-02-01T22:07:54.208Z,77.20
2023-02-01T22:10:23.368Z,77.37
2023-02-01T22:12:52.151Z,77.46
2023-02-01T22:15:21.667Z,77.01
2023-02-01T22:17:49.572Z,77.34
2023-02-01T22:20:18.077Z,77.08
2023-02-01T22:22:48.887Z,77.14
2023-02-01T22:25:16.911Z,77.08
2023-02-01T22:28:31.643Z,76.93
2023-02-01T22:30:34.242Z,77.45
2023-02-01T22:33:02.208Z,77.71
2023-02-01T22:35:30.133Z,78.07
2023-02-01T22:37:58.046Z,77.19
2023-02-01T22:40:26.019Z,78.19
2023-02-01T22:42:53.897Z,77.72
2023-02-01T22:45:22.126Z,77.73
2023-02-01T22:47:52.883Z,78.10
2023-02-01T22:50:22.033Z,78.56
2023-02-01T22:52:49.950Z,78.50
2023-02-01T22:55:17.901Z,78.30
2023-02-01T22:57:45.759Z,78.90
2023-02-01T23:00:14.807Z,78.86
2023-02-01T23:02:43.277Z,78.73
2023-02-01T23:05:12.766Z,78.94
2023-02-01T23:07:40.717Z,78.98
2023-02-01T23:10:10.066Z,78.31
2023-02-01T23:12:38.006Z,78.64
2023-02-01T23:15:06.713Z,78.38
2023-02-01T23:17:35.122Z,78.15
2023-02-01T23:20:03.406Z,78.48
2023-02-01T23:22:32.731Z,79.18
2023-02-01T23:25:00.960Z,79.42
2023-02-01T23:27:28.897Z,79.51
2023-02-01T23:29:56.867Z,79.24
2023-02-01T23:32:24.761Z,79.69
2023-02-01T23:34:52.683Z,79.48
2023-02-01T23:37:20.596Z,78.69
2023-02-01T23:39:49.856Z,79.53
2023-02-01T23:42:17.779Z,79.20
2023-02-01T23:44:45.696Z,79.03
2023-02-01T23:47:14.099Z,78.71
2023-02-01T23:49:42.136Z,78.61
2023-02-01T23:52:10.478Z,78.44
2023-02-01T23:54:38.634Z,78.17
2023-02-01T23:57:07.910Z,78.17
2023-02-01T23:59:35.863Z,78.36
